South Park Village, Washington
Current Conditions -  °F | °C
As of 2:55 PM on Saturday 25 Oct 2014 (Local Time) from KPWT Reporting Station
Overcast Overcast  
Wind Chill: 54°   Ceiling: 4700
Heat Index: 54°   Visibility: 10mi
Dew Point: 54°   Wind: 6mph
Humidity: 100%   Direction: 30°NNE
Pressure: 29.32"   Gusts: NA
Location:  47.5378°N, 122.589°W
Report Text: KPWT 252155Z AUTO 03005KT 10SM BKN047 OVC055 12/12 A2932 RMK AO1 P0003
Loading
Personal Weather Stations






























Interactive Weather Map
Tropical Storm Tracking
New forecast layout! Learn more

10-Day Weather Forecast

Advertisements
Track Severe Weather on mobile